createdAt,value
2018-07-07T00:02:29.092Z,101636.00
2018-07-07T00:07:22.323Z,101629.00
2018-07-07T00:12:15.630Z,101630.00
2018-07-07T00:17:08.949Z,101630.00
2018-07-07T00:22:02.632Z,101632.00
2018-07-07T00:26:55.896Z,101635.00
2018-07-07T00:31:49.130Z,101629.00
2018-07-07T00:36:43.851Z,101630.00
2018-07-07T00:41:37.085Z,101640.00
2018-07-07T00:46:30.314Z,101641.00
2018-07-07T00:51:23.543Z,101643.00
2018-07-07T00:56:17.397Z,101645.00
2018-07-07T01:01:10.687Z,101641.00
2018-07-07T01:06:03.966Z,101638.00
2018-07-07T01:10:57.213Z,101645.00
2018-07-07T01:15:50.819Z,101643.00
2018-07-07T01:20:44.662Z,101642.00
2018-07-07T01:25:37.979Z,101640.00
2018-07-07T01:30:31.285Z,101638.00
2018-07-07T01:35:24.609Z,101642.00
2018-07-07T01:40:18.040Z,101644.00
2018-07-07T01:45:11.412Z,101637.00
2018-07-07T01:50:04.803Z,101633.00
2018-07-07T01:54:58.094Z,101632.00
2018-07-07T01:59:51.386Z,101631.00
2018-07-07T02:04:44.707Z,101630.00
2018-07-07T02:09:37.962Z,101636.00
2018-07-07T02:14:31.204Z,101638.00
2018-07-07T02:19:24.624Z,101636.00
2018-07-07T02:24:17.799Z,101633.00
2018-07-07T02:29:11.800Z,101635.00
2018-07-07T02:34:05.177Z,101633.00
2018-07-07T02:38:58.430Z,101628.00
2018-07-07T02:43:51.759Z,101630.00
2018-07-07T02:48:45.035Z,101629.00
2018-07-07T02:53:38.328Z,101628.00
2018-07-07T02:58:31.591Z,101636.00
2018-07-07T03:03:24.941Z,101639.00
2018-07-07T03:08:18.115Z,101645.00
2018-07-07T03:13:11.493Z,101640.00
2018-07-07T03:18:04.768Z,101638.00
2018-07-07T03:22:58.032Z,101648.00
2018-07-07T03:27:51.290Z,101649.00
2018-07-07T03:32:44.469Z,101650.00
2018-07-07T03:37:37.597Z,101661.00
2018-07-07T03:42:30.840Z,101667.00
2018-07-07T03:47:24.119Z,101663.00
2018-07-07T03:52:17.364Z,101667.00
2018-07-07T03:57:10.571Z,101674.00
2018-07-07T04:02:06.992Z,101675.00
2018-07-07T04:07:00.232Z,101679.00
2018-07-07T04:11:53.490Z,101678.00
2018-07-07T04:16:46.690Z,101686.00
2018-07-07T04:21:40.027Z,101681.00
2018-07-07T04:26:33.288Z,101687.00
2018-07-07T04:31:26.572Z,101687.00
2018-07-07T04:36:19.860Z,101693.00
2018-07-07T04:41:13.135Z,101692.00
2018-07-07T04:46:06.485Z,101693.00
2018-07-07T04:50:59.724Z,101692.00
2018-07-07T04:55:52.972Z,101695.00
2018-07-07T05:00:46.377Z,101699.00
2018-07-07T05:05:39.699Z,101690.00
2018-07-07T05:10:33.044Z,101699.00
2018-07-07T05:15:26.214Z,101698.00
2018-07-07T05:20:19.585Z,101696.00
2018-07-07T05:25:12.767Z,101698.00
2018-07-07T05:30:06.061Z,101703.00
2018-07-07T05:34:59.441Z,101714.00
2018-07-07T05:39:52.696Z,101712.00
2018-07-07T05:44:46.020Z,101716.00
2018-07-07T05:49:39.322Z,101721.00
2018-07-07T05:54:32.612Z,101716.00
2018-07-07T05:59:26.009Z,101722.00
2018-07-07T06:04:19.294Z,101719.00
2018-07-07T06:09:12.756Z,101725.00
2018-07-07T06:14:05.921Z,101706.00
2018-07-07T06:18:59.296Z,101706.00
2018-07-07T06:23:52.464Z,101719.00
2018-07-07T06:28:45.771Z,101721.00
2018-07-07T06:33:39.016Z,101726.00
2018-07-07T06:38:32.191Z,101723.00
2018-07-07T06:43:25.370Z,101725.00
2018-07-07T06:48:18.564Z,101721.00
2018-07-07T06:53:11.853Z,101719.00
2018-07-07T06:58:05.218Z,101722.00
2018-07-07T07:02:58.536Z,101728.00
2018-07-07T07:07:51.791Z,101725.00
2018-07-07T07:12:45.084Z,101718.00
2018-07-07T07:17:38.602Z,101710.00
2018-07-07T07:22:31.915Z,101717.00
2018-07-07T07:27:25.166Z,101715.00
2018-07-07T07:32:18.412Z,101721.00
2018-07-07T07:37:11.711Z,101728.00
2018-07-07T07:42:05.041Z,101737.00
2018-07-07T07:46:58.845Z,101741.00
2018-07-07T07:51:52.089Z,101736.00
2018-07-07T07:56:45.356Z,101727.00
2018-07-07T08:01:38.592Z,101733.00
2018-07-07T08:06:31.766Z,101737.00
2018-07-07T08:11:25.064Z,101729.00
2018-07-07T08:16:18.486Z,101736.00
2018-07-07T08:21:11.792Z,101725.00
2018-07-07T08:26:05.469Z,101742.00
2018-07-07T08:30:58.782Z,101740.00
2018-07-07T08:35:52.657Z,101734.00
2018-07-07T08:40:46.455Z,101738.00
2018-07-07T08:45:39.927Z,101730.00
2018-07-07T08:50:33.162Z,101748.00
2018-07-07T08:55:26.434Z,101746.00
2018-07-07T09:00:19.680Z,101740.00
2018-07-07T09:05:13.051Z,101741.00
2018-07-07T09:10:06.406Z,101729.00
2018-07-07T09:14:59.672Z,101730.00
2018-07-07T09:19:52.889Z,101735.00
2018-07-07T09:24:46.141Z,101726.00
2018-07-07T09:29:39.402Z,101726.00
2018-07-07T09:34:32.640Z,101723.00
2018-07-07T09:39:25.948Z,101718.00
2018-07-07T09:44:19.191Z,101726.00
2018-07-07T09:49:12.466Z,101720.00
2018-07-07T09:54:05.818Z,101712.00
2018-07-07T09:58:59.076Z,101712.00
2018-07-07T10:03:52.387Z,101715.00
2018-07-07T10:08:45.656Z,101713.00
2018-07-07T10:13:38.935Z,101714.00
2018-07-07T10:18:32.313Z,101719.00
2018-07-07T10:23:25.557Z,101713.00
2018-07-07T10:28:18.860Z,101725.00
2018-07-07T10:33:12.293Z,101725.00
2018-07-07T10:38:05.609Z,101715.00
2018-07-07T10:42:58.888Z,101718.00
2018-07-07T10:47:52.149Z,101733.00
2018-07-07T10:52:45.385Z,101731.00
2018-07-07T10:57:38.672Z,101729.00
2018-07-07T11:02:31.925Z,101738.00
2018-07-07T11:07:25.211Z,101727.00
2018-07-07T11:12:18.504Z,101729.00
2018-07-07T11:17:11.778Z,101722.00
2018-07-07T11:22:05.325Z,101725.00
2018-07-07T11:26:58.593Z,101723.00
2018-07-07T11:31:51.741Z,101716.00
2018-07-07T11:36:45.201Z,101717.00
2018-07-07T11:41:38.368Z,101723.00
2018-07-07T11:46:31.701Z,101713.00
2018-07-07T11:51:25.040Z,101713.00
2018-07-07T11:56:18.339Z,101714.00
2018-07-07T12:01:11.586Z,101700.00
2018-07-07T12:06:05.051Z,101705.00
2018-07-07T12:10:58.354Z,101692.00
2018-07-07T12:15:51.618Z,101692.00
2018-07-07T12:20:45.496Z,101697.00
2018-07-07T12:25:39.391Z,101687.00
2018-07-07T12:30:32.672Z,101688.00
2018-07-07T12:35:26.603Z,101679.00
2018-07-07T12:40:19.991Z,101682.00
2018-07-07T12:45:15.145Z,101682.00
2018-07-07T12:50:08.410Z,101672.00
2018-07-07T12:55:01.657Z,101671.00
2018-07-07T12:59:54.949Z,101666.00
2018-07-07T13:04:48.242Z,101665.00
2018-07-07T13:09:42.957Z,101664.00
2018-07-07T13:14:36.141Z,101669.00
2018-07-07T13:19:29.445Z,101671.00
2018-07-07T13:24:22.724Z,101666.00
2018-07-07T13:29:15.959Z,101663.00
2018-07-07T13:34:09.243Z,101659.00
2018-07-07T13:39:02.710Z,101685.00
2018-07-07T13:43:55.962Z,101672.00
2018-07-07T13:48:49.223Z,101669.00
2018-07-07T13:53:43.667Z,101666.00
2018-07-07T13:58:37.584Z,101668.00
2018-07-07T14:03:30.801Z,101678.00
2018-07-07T14:08:24.042Z,101666.00
2018-07-07T14:13:17.293Z,101681.00
2018-07-07T14:18:10.534Z,101669.00
2018-07-07T14:23:03.865Z,101678.00
2018-07-07T14:27:57.116Z,101681.00
2018-07-07T14:32:50.454Z,101658.00
2018-07-07T14:37:44.353Z,101669.00
2018-07-07T14:42:50.773Z,101674.00
2018-07-07T14:47:45.312Z,101675.00
2018-07-07T14:52:38.601Z,101677.00
2018-07-07T14:57:31.881Z,101667.00
2018-07-07T15:02:25.160Z,101673.00
2018-07-07T15:07:20.359Z,101655.00
2018-07-07T15:12:15.129Z,101674.00
2018-07-07T15:17:10.092Z,101679.00
2018-07-07T15:22:03.835Z,101675.00
2018-07-07T15:26:57.333Z,101666.00
2018-07-07T15:31:50.562Z,101670.00
2018-07-07T15:36:43.840Z,101677.00
2018-07-07T15:41:37.122Z,101683.00
2018-07-07T15:46:30.383Z,101669.00
2018-07-07T15:51:23.674Z,101670.00
2018-07-07T15:56:16.936Z,101663.00
2018-07-07T16:01:10.295Z,101658.00
2018-07-07T16:06:03.499Z,101657.00
2018-07-07T16:10:56.807Z,101650.00
2018-07-07T16:15:50.049Z,101646.00
2018-07-07T16:20:43.417Z,101630.00
2018-07-07T16:25:37.498Z,101645.00
2018-07-07T16:30:30.795Z,101640.00
2018-07-07T16:35:24.052Z,101633.00
2018-07-07T16:40:19.324Z,101629.00
2018-07-07T16:45:12.680Z,101632.00
2018-07-07T16:50:06.947Z,101626.00
2018-07-07T16:55:00.312Z,101622.00
2018-07-07T16:59:54.068Z,101615.00
2018-07-07T17:04:47.416Z,101615.00
2018-07-07T17:09:40.752Z,101618.00
2018-07-07T17:14:34.365Z,101623.00
2018-07-07T17:19:27.804Z,101622.00
2018-07-07T17:24:21.585Z,101623.00
2018-07-07T17:29:14.964Z,101628.00
2018-07-07T17:34:08.293Z,101632.00
2018-07-07T17:39:01.801Z,101627.00
2018-07-07T17:43:55.716Z,101626.00
2018-07-07T17:48:48.988Z,101628.00
2018-07-07T17:53:42.662Z,101626.00
2018-07-07T17:58:36.091Z,101631.00
2018-07-07T18:03:30.011Z,101638.00
2018-07-07T18:08:23.204Z,101638.00
2018-07-07T18:13:16.472Z,101643.00
2018-07-07T18:18:09.710Z,101649.00
2018-07-07T18:23:03.085Z,101647.00
2018-07-07T18:27:56.343Z,101648.00
2018-07-07T18:32:49.646Z,101642.00
2018-07-07T18:37:42.822Z,101642.00
2018-07-07T18:42:36.177Z,101654.00
2018-07-07T18:47:29.458Z,101652.00
2018-07-07T18:52:22.721Z,101650.00
2018-07-07T18:57:16.082Z,101651.00
2018-07-07T19:02:09.291Z,101653.00
2018-07-07T19:07:03.092Z,101656.00
2018-07-07T19:11:56.353Z,101649.00
2018-07-07T19:16:49.666Z,101644.00
2018-07-07T19:21:48.578Z,101653.00
2018-07-07T19:26:47.522Z,101655.00
2018-07-07T19:31:46.514Z,101658.00
2018-07-07T19:36:45.398Z,101662.00
2018-07-07T19:41:38.686Z,101666.00
2018-07-07T19:46:32.022Z,101671.00
2018-07-07T19:51:25.163Z,101678.00
2018-07-07T19:56:18.408Z,101681.00
2018-07-07T20:01:11.646Z,101685.00
2018-07-07T20:06:04.857Z,101689.00
2018-07-07T20:10:59.090Z,101691.00
2018-07-07T20:16:16.062Z,101692.00
2018-07-07T20:21:32.220Z,101689.00
2018-07-07T20:26:25.526Z,101705.00
2018-07-07T20:31:18.784Z,101698.00
2018-07-07T20:36:12.056Z,101700.00
2018-07-07T20:41:05.431Z,101708.00
2018-07-07T20:45:58.741Z,101703.00
2018-07-07T20:50:52.007Z,101705.00
2018-07-07T20:55:45.184Z,101711.00
2018-07-07T21:00:38.375Z,101708.00
2018-07-07T21:05:31.640Z,101717.00
2018-07-07T21:10:24.909Z,101712.00
2018-07-07T21:15:18.294Z,101709.00
2018-07-07T21:20:11.632Z,101711.00
2018-07-07T21:25:04.959Z,101707.00
2018-07-07T21:29:58.198Z,101708.00
2018-07-07T21:34:51.485Z,101718.00
2018-07-07T21:39:44.644Z,101724.00
2018-07-07T21:44:37.970Z,101713.00
2018-07-07T21:49:31.237Z,101717.00
2018-07-07T21:54:24.549Z,101719.00
2018-07-07T21:59:17.882Z,101721.00
2018-07-07T22:04:16.636Z,101723.00
2018-07-07T22:09:09.908Z,101727.00
2018-07-07T22:14:03.216Z,101724.00
2018-07-07T22:18:56.387Z,101724.00
2018-07-07T22:23:49.654Z,101737.00
2018-07-07T22:28:42.955Z,101733.00
2018-07-07T22:33:36.135Z,101739.00
2018-07-07T22:38:35.086Z,101739.00
2018-07-07T22:43:28.914Z,101746.00
2018-07-07T22:48:22.109Z,101750.00
2018-07-07T22:53:15.347Z,101741.00
2018-07-07T22:58:08.640Z,101737.00
2018-07-07T23:03:02.397Z,101736.00
2018-07-07T23:07:55.676Z,101736.00
2018-07-07T23:12:48.948Z,101741.00
2018-07-07T23:17:42.220Z,101741.00
2018-07-07T23:22:49.163Z,101738.00
2018-07-07T23:27:42.467Z,101739.00
2018-07-07T23:32:37.664Z,101734.00
2018-07-07T23:37:30.976Z,101732.00
2018-07-07T23:42:24.241Z,101730.00
2018-07-07T23:47:17.525Z,101732.00
2018-07-07T23:52:11.347Z,101733.00
2018-07-07T23:57:04.833Z,101743.00
